Élőkép

Információk

Albatrosz Repülő Egyesület
8000 Székesfehérvár,
Radványi utca 6.

Adószám:
19092908-2-07

Bankszámla szám:
Budapest Bank
10102952-01361819-00000001

Telefon: +36 30 9598-897

Telephey: Börgönd repülőtér

Börgöndi repülõtér

LHBP METAR/TAF

[source: ADDS]
METAR
TAF LHBP 280500Z 2806/0106 VRB03KT 3000 -RA BR SCT005 OVC020 TEMPO 2806/2809 1500 -RA BR BKN004 OVC015 BECMG 2809/2811 01006KT 9999 NSW BKN040 TEMPO 2812/2816 CAVOK BECMG 2816/2819 VRB03KT 5000 BR BKN025 TEMPO 2823/0106 1200 BCFG BR BKN005 TAF
TAF LHBP 280500Z 2806/0106 VRB03KT 3000 -RA BR SCT005 OVC020 TEMPO 2806/2809 1500 -RA BR BKN004 OVC015 BECMG 2809/2811 01006KT 9999 NSW BKN040 TEMPO 2812/2816 CAVOK BECMG 2816/2819 VRB03KT 5000 BR BKN025 TEMPO 2823/0106 1200 BCFG BR BKN005 =
SR / SS: 05:29 / 16:31 UTC (Börgönd 2015-02-28)
Hungarian Chinese (Simplified) Croatian Czech English Finnish French German Hebrew Italian Japanese Polish Portuguese Romanian Russian Serbian Slovak Slovenian Spanish

Belépés tagoknak